createdAt,value
2023-04-29T00:00:38.852Z,2.75
2023-04-29T00:03:11.591Z,3.13
2023-04-29T00:05:44.857Z,2.70
2023-04-29T00:08:17.331Z,2.90
2023-04-29T00:10:50.069Z,3.00
2023-04-29T00:13:22.632Z,3.17
2023-04-29T00:15:55.292Z,3.20
2023-04-29T00:18:27.507Z,3.53
2023-04-29T00:20:59.735Z,2.85
2023-04-29T00:23:33.510Z,2.70
2023-04-29T00:26:05.760Z,3.20
2023-04-29T00:28:37.991Z,3.67
2023-04-29T00:31:10.528Z,3.63
2023-04-29T00:33:42.753Z,3.60
2023-04-29T00:36:15.559Z,3.42
2023-04-29T00:38:47.663Z,3.70
2023-04-29T00:41:20.329Z,3.70
2023-04-29T00:43:52.859Z,4.22
2023-04-29T00:46:25.022Z,3.40
2023-04-29T00:48:57.526Z,3.30
2023-04-29T00:51:29.869Z,3.83
2023-04-29T00:54:02.475Z,3.55
2023-04-29T00:56:37.696Z,3.83
2023-04-29T00:59:12.709Z,3.95
2023-04-29T01:01:47.022Z,3.30
2023-04-29T01:04:19.873Z,4.18
2023-04-29T01:07:07.719Z,4.18
2023-04-29T01:10:09.607Z,3.70
2023-04-29T01:13:26.845Z,3.78
2023-04-29T01:16:21.490Z,5.00
2023-04-29T01:19:41.428Z,3.47
2023-04-29T01:22:21.701Z,4.00
2023-04-29T01:24:55.012Z,3.30
2023-04-29T01:27:33.443Z,3.97
2023-04-29T01:30:24.003Z,3.50
2023-04-29T01:33:23.951Z,3.65
2023-04-29T01:36:46.027Z,3.67
2023-04-29T01:39:45.445Z,3.50
2023-04-29T01:42:39.941Z,2.90
2023-04-29T01:45:21.850Z,3.60
2023-04-29T01:47:56.370Z,4.05
2023-04-29T01:50:29.688Z,4.25
2023-04-29T01:53:01.846Z,3.65
2023-04-29T01:55:33.932Z,4.35
2023-04-29T01:58:06.224Z,3.78
2023-04-29T02:00:38.972Z,3.15
2023-04-29T02:03:12.334Z,3.55
2023-04-29T02:05:44.407Z,3.63
2023-04-29T02:08:17.880Z,3.60
2023-04-29T02:10:54.602Z,3.70
2023-04-29T02:13:27.935Z,3.20
2023-04-29T02:16:11.310Z,3.03
2023-04-29T02:18:44.992Z,2.90
2023-04-29T02:21:17.102Z,4.20
2023-04-29T02:23:49.244Z,2.85
2023-04-29T02:26:22.350Z,2.75
2023-04-29T02:28:56.617Z,4.47
2023-04-29T02:31:29.385Z,3.30
2023-04-29T02:34:02.180Z,3.60
2023-04-29T02:36:34.986Z,3.50
2023-04-29T02:39:07.182Z,3.20
2023-04-29T02:41:39.318Z,3.08
2023-04-29T02:44:12.485Z,3.20
2023-04-29T02:46:45.811Z,3.25
2023-04-29T02:49:18.744Z,3.83
2023-04-29T02:51:50.829Z,3.35
2023-04-29T02:54:23.033Z,3.20
2023-04-29T02:56:55.041Z,2.83
2023-04-29T02:59:27.754Z,3.53
2023-04-29T03:01:59.694Z,3.85
2023-04-29T03:04:33.285Z,2.95
2023-04-29T03:07:05.762Z,3.13
2023-04-29T03:09:39.202Z,5.00
2023-04-29T03:12:11.691Z,3.33
2023-04-29T03:14:43.830Z,3.35
2023-04-29T03:17:15.915Z,2.95
2023-04-29T03:19:48.575Z,3.10
2023-04-29T03:22:20.633Z,2.90
2023-04-29T03:24:52.632Z,3.63
2023-04-29T03:27:24.948Z,3.53
2023-04-29T03:29:57.134Z,3.25
2023-04-29T03:32:29.108Z,3.08
2023-04-29T03:35:01.979Z,4.10
2023-04-29T03:37:34.209Z,3.65
2023-04-29T03:40:07.207Z,3.88
2023-04-29T03:42:39.662Z,3.60
2023-04-29T03:45:14.379Z,3.75
2023-04-29T03:47:46.626Z,3.90
2023-04-29T03:50:19.176Z,4.10
2023-04-29T03:52:51.444Z,3.85
2023-04-29T03:55:23.987Z,4.20
2023-04-29T03:57:56.917Z,4.18
2023-04-29T04:00:31.321Z,3.97
2023-04-29T04:03:05.498Z,3.90
2023-04-29T04:05:38.446Z,3.63
2023-04-29T04:08:11.166Z,3.60
2023-04-29T04:10:43.306Z,3.78
2023-04-29T04:13:15.589Z,4.55
2023-04-29T04:15:52.229Z,3.85
2023-04-29T04:18:24.720Z,4.03
2023-04-29T04:20:56.850Z,4.60
2023-04-29T04:23:28.825Z,4.50
2023-04-29T04:26:00.946Z,4.63
2023-04-29T04:28:33.401Z,4.00
2023-04-29T04:31:05.650Z,4.88
2023-04-29T04:33:37.770Z,4.60
2023-04-29T04:36:09.841Z,4.30
2023-04-29T04:38:42.052Z,5.15
2023-04-29T04:41:14.098Z,5.20
2023-04-29T04:43:46.232Z,4.80
2023-04-29T04:46:18.669Z,5.47
2023-04-29T04:48:51.124Z,5.00
2023-04-29T04:51:23.143Z,4.85
2023-04-29T04:53:55.088Z,4.70
2023-04-29T04:56:27.054Z,4.50
2023-04-29T04:58:59.007Z,5.38
2023-04-29T05:01:31.009Z,5.40
2023-04-29T05:04:03.509Z,5.43
2023-04-29T05:06:35.904Z,4.47
2023-04-29T05:09:08.312Z,6.00
2023-04-29T05:11:41.877Z,5.47
2023-04-29T05:14:14.115Z,5.53
2023-04-29T05:16:46.826Z,5.97
2023-04-29T05:19:19.784Z,7.20
2023-04-29T05:21:52.157Z,5.70
2023-04-29T05:24:24.050Z,6.10
2023-04-29T05:26:57.262Z,6.22
2023-04-29T05:29:29.439Z,6.78
2023-04-29T05:32:01.685Z,6.38
2023-04-29T05:34:33.869Z,6.18
2023-04-29T05:37:05.919Z,6.97
2023-04-29T05:39:37.996Z,6.45
2023-04-29T05:42:09.990Z,6.10
2023-04-29T05:44:42.369Z,6.40
2023-04-29T05:47:14.706Z,6.63
2023-04-29T05:49:47.144Z,7.28
2023-04-29T05:52:19.408Z,6.25
2023-04-29T05:54:51.769Z,7.00
2023-04-29T05:57:23.875Z,6.15
2023-04-29T05:59:56.304Z,5.68
2023-04-29T06:02:31.251Z,5.45
2023-04-29T06:05:04.937Z,6.00
2023-04-29T06:07:38.648Z,6.30
2023-04-29T06:10:11.041Z,4.90
2023-04-29T06:12:43.350Z,5.90
2023-04-29T06:15:15.682Z,5.40
2023-04-29T06:17:48.921Z,4.78
2023-04-29T06:20:21.189Z,5.10
2023-04-29T06:22:53.387Z,4.95
2023-04-29T06:25:25.676Z,4.85
2023-04-29T06:27:58.420Z,8.10
2023-04-29T06:30:30.611Z,4.80
2023-04-29T06:33:02.879Z,4.65
2023-04-29T06:35:39.130Z,4.25
2023-04-29T06:38:12.215Z,4.47
2023-04-29T06:40:44.289Z,4.57
2023-04-29T06:43:16.607Z,4.32
2023-04-29T06:45:48.823Z,3.75
2023-04-29T06:48:21.158Z,3.75
2023-04-29T06:50:58.221Z,5.72
2023-04-29T06:53:30.917Z,3.70
2023-04-29T06:56:03.269Z,3.38
2023-04-29T06:58:37.190Z,3.22
2023-04-29T07:01:09.465Z,2.70
2023-04-29T07:03:42.498Z,3.22
2023-04-29T07:06:14.752Z,3.00
2023-04-29T07:08:46.848Z,2.97
2023-04-29T07:11:19.286Z,2.92
2023-04-29T07:13:53.354Z,3.03
2023-04-29T07:16:26.851Z,3.13
2023-04-29T07:18:59.626Z,3.72
2023-04-29T07:21:32.109Z,3.47
2023-04-29T07:24:05.116Z,3.22
2023-04-29T07:26:37.657Z,3.20
2023-04-29T07:29:11.346Z,3.53
2023-04-29T07:31:43.593Z,3.45
2023-04-29T07:34:15.768Z,3.80
2023-04-29T07:36:47.842Z,3.00
2023-04-29T07:39:20.004Z,3.42
2023-04-29T07:41:52.236Z,4.90
2023-04-29T07:44:24.436Z,3.58
2023-04-29T07:46:56.964Z,3.15
2023-04-29T07:49:29.294Z,3.70
2023-04-29T07:52:02.490Z,3.15
2023-04-29T07:54:39.609Z,3.63
2023-04-29T07:57:11.936Z,3.97
2023-04-29T07:59:44.186Z,3.50
2023-04-29T08:02:16.771Z,3.88
2023-04-29T08:04:51.604Z,3.67
2023-04-29T08:07:26.791Z,4.65
2023-04-29T08:09:59.296Z,3.95
2023-04-29T08:12:32.671Z,4.05
2023-04-29T08:15:09.786Z,4.38
2023-04-29T08:17:43.859Z,3.70
2023-04-29T08:20:18.645Z,4.20
2023-04-29T08:22:51.322Z,3.95
2023-04-29T08:25:24.427Z,3.65
2023-04-29T08:27:58.009Z,4.10
2023-04-29T08:30:31.117Z,6.32
2023-04-29T08:33:04.329Z,3.75
2023-04-29T08:35:38.150Z,4.20
2023-04-29T08:38:11.877Z,4.25
2023-04-29T08:40:47.232Z,3.60
2023-04-29T08:43:21.818Z,4.10
2023-04-29T08:45:55.487Z,3.80
2023-04-29T08:48:30.566Z,4.05
2023-04-29T08:51:04.522Z,4.70
2023-04-29T08:53:37.551Z,4.50
2023-04-29T08:56:20.538Z,4.90
2023-04-29T08:58:55.313Z,4.75
2023-04-29T09:01:31.166Z,5.03
2023-04-29T09:04:30.345Z,5.75
2023-04-29T09:07:18.723Z,5.50
2023-04-29T09:09:53.575Z,4.80
2023-04-29T09:12:27.630Z,5.15
2023-04-29T09:15:01.491Z,5.20
2023-04-29T09:17:48.690Z,6.15
2023-04-29T09:20:21.566Z,4.43
2023-04-29T09:23:02.019Z,4.80
2023-04-29T09:25:36.580Z,6.17
2023-04-29T09:28:17.205Z,4.30
2023-04-29T09:30:50.774Z,5.25
2023-04-29T09:33:22.896Z,4.88
2023-04-29T09:36:01.106Z,5.33
2023-04-29T09:38:33.739Z,7.33
2023-04-29T09:41:12.338Z,4.78
2023-04-29T09:44:07.406Z,4.70
2023-04-29T09:46:40.885Z,4.78
2023-04-29T09:49:26.590Z,4.90
2023-04-29T09:52:04.102Z,4.57
2023-04-29T09:54:42.002Z,3.85
2023-04-29T09:57:15.894Z,3.83
2023-04-29T09:59:49.833Z,4.00
2023-04-29T10:02:26.181Z,3.72
2023-04-29T10:04:59.353Z,4.23
2023-04-29T10:07:32.069Z,4.03
2023-04-29T10:10:06.409Z,4.47
2023-04-29T10:12:42.508Z,3.67
2023-04-29T10:15:42.399Z,3.70
2023-04-29T10:18:22.265Z,3.60
2023-04-29T10:21:03.926Z,3.93
2023-04-29T10:23:39.081Z,7.37
2023-04-29T10:26:15.090Z,3.23
2023-04-29T10:28:52.111Z,4.03
2023-04-29T10:31:28.334Z,4.43
2023-04-29T10:34:02.432Z,6.47
2023-04-29T10:36:36.746Z,4.10
2023-04-29T10:39:17.104Z,3.07
2023-04-29T10:41:58.497Z,3.97
2023-04-29T10:44:31.394Z,3.50
2023-04-29T10:47:21.559Z,4.07
2023-04-29T10:50:04.584Z,4.37
2023-04-29T10:52:53.090Z,3.90
2023-04-29T10:55:26.377Z,3.77
2023-04-29T10:57:58.685Z,5.07
2023-04-29T11:00:33.833Z,3.70
2023-04-29T11:03:08.546Z,3.20
2023-04-29T11:06:09.391Z,3.43
2023-04-29T11:08:43.040Z,3.33
2023-04-29T11:11:16.018Z,3.33
2023-04-29T11:13:48.721Z,3.90
2023-04-29T11:16:28.311Z,3.90
2023-04-29T11:19:12.261Z,3.50
2023-04-29T11:21:47.347Z,4.50
2023-04-29T11:24:19.854Z,3.87
2023-04-29T11:26:52.595Z,3.87
2023-04-29T11:29:25.762Z,4.73
2023-04-29T11:32:02.649Z,4.23
2023-04-29T11:34:35.050Z,5.27
2023-04-29T11:37:07.089Z,4.47
2023-04-29T11:39:40.281Z,4.40
2023-04-29T11:42:12.444Z,6.33
2023-04-29T11:44:45.705Z,5.73
2023-04-29T11:47:18.088Z,5.73
2023-04-29T11:49:50.464Z,30.23
2023-04-29T11:52:22.643Z,7.47
2023-04-29T11:54:55.118Z,5.00
2023-04-29T11:57:29.066Z,4.93
2023-04-29T12:00:01.363Z,5.33
2023-04-29T12:02:35.327Z,5.33
2023-04-29T12:05:08.850Z,7.23
2023-04-29T12:07:41.525Z,8.90
2023-04-29T12:10:14.139Z,5.63
2023-04-29T12:12:47.536Z,5.13
2023-04-29T12:15:20.149Z,7.00
2023-04-29T12:17:52.595Z,6.90
2023-04-29T12:20:24.911Z,7.50
2023-04-29T12:22:59.323Z,7.03
2023-04-29T12:25:55.250Z,5.83
2023-04-29T12:28:30.690Z,6.60
2023-04-29T12:31:04.687Z,6.50
2023-04-29T12:33:37.454Z,6.67
2023-04-29T12:36:18.453Z,7.43
2023-04-29T12:38:50.714Z,7.43
2023-04-29T12:41:42.210Z,7.07
2023-04-29T12:44:16.069Z,7.37
2023-04-29T12:46:48.234Z,7.70
2023-04-29T12:49:20.760Z,8.27
2023-04-29T12:51:55.184Z,6.77
2023-04-29T12:54:27.443Z,7.60
2023-04-29T12:57:00.842Z,7.60
2023-04-29T12:59:34.449Z,7.07
2023-04-29T13:02:07.644Z,8.10
2023-04-29T13:04:40.514Z,8.37
2023-04-29T13:07:13.526Z,7.73
2023-04-29T13:09:45.712Z,8.10
2023-04-29T13:12:17.974Z,7.83
2023-04-29T13:14:51.312Z,8.47
2023-04-29T13:17:23.940Z,8.03
2023-04-29T13:19:56.836Z,11.10
2023-04-29T13:22:29.394Z,8.93
2023-04-29T13:25:02.101Z,8.37
2023-04-29T13:27:36.238Z,8.47
2023-04-29T13:30:09.840Z,8.87
2023-04-29T13:32:46.471Z,8.77
2023-04-29T13:35:25.799Z,8.73
2023-04-29T13:37:57.932Z,7.10
2023-04-29T13:40:30.846Z,8.10
2023-04-29T13:43:06.265Z,6.70
2023-04-29T13:45:42.835Z,8.27
2023-04-29T13:48:50.228Z,8.17
2023-04-29T13:54:37.414Z,8.40
2023-04-29T13:59:41.569Z,8.00
2023-04-29T14:02:23.113Z,8.53
2023-04-29T14:04:57.200Z,7.47
2023-04-29T14:07:29.790Z,7.37
2023-04-29T14:10:02.760Z,7.80
2023-04-29T14:12:35.505Z,10.20
2023-04-29T14:15:08.038Z,6.93
2023-04-29T14:17:40.746Z,6.90
2023-04-29T14:20:13.469Z,7.53
2023-04-29T14:22:45.726Z,7.27
2023-04-29T14:25:18.553Z,7.30
2023-04-29T14:27:50.844Z,7.60
2023-04-29T14:30:23.231Z,7.80
2023-04-29T14:32:56.349Z,7.50
2023-04-29T14:35:28.830Z,8.23
2023-04-29T14:38:01.503Z,7.90
2023-04-29T14:40:33.655Z,9.07
2023-04-29T14:43:06.721Z,8.40
2023-04-29T14:45:38.998Z,8.30
2023-04-29T14:48:12.388Z,7.70
2023-04-29T14:50:44.475Z,8.17
2023-04-29T14:53:16.632Z,8.97
2023-04-29T14:55:52.621Z,8.20
2023-04-29T14:58:24.919Z,7.60
2023-04-29T15:00:57.294Z,7.60
2023-04-29T15:03:29.500Z,7.50
2023-04-29T15:06:04.065Z,8.47
2023-04-29T15:08:38.430Z,8.40
2023-04-29T15:11:11.768Z,8.00
2023-04-29T15:13:44.478Z,8.97
2023-04-29T15:16:17.094Z,8.00
2023-04-29T15:18:49.391Z,7.47
2023-04-29T15:21:22.315Z,8.60
2023-04-29T15:23:54.799Z,8.20
2023-04-29T15:26:27.457Z,7.60
2023-04-29T15:28:59.914Z,7.80
2023-04-29T15:31:32.895Z,8.17
2023-04-29T15:34:05.244Z,7.93
2023-04-29T15:36:37.464Z,8.80
2023-04-29T15:39:11.113Z,9.60
2023-04-29T15:41:44.047Z,8.13
2023-04-29T15:44:16.259Z,7.78
2023-04-29T15:46:48.794Z,7.50
2023-04-29T15:49:22.775Z,7.97
2023-04-29T15:52:01.341Z,6.90
2023-04-29T15:54:36.614Z,7.00
2023-04-29T15:57:09.708Z,6.90
2023-04-29T15:59:42.970Z,9.30
2023-04-29T16:02:16.188Z,6.50
2023-04-29T16:04:48.980Z,6.57
2023-04-29T16:07:21.240Z,7.00
2023-04-29T16:09:53.632Z,6.68
2023-04-29T16:12:26.634Z,6.72
2023-04-29T16:14:59.494Z,7.30
2023-04-29T16:17:34.856Z,6.70
2023-04-29T16:20:08.221Z,7.85
2023-04-29T16:22:40.732Z,6.50
2023-04-29T16:25:13.325Z,6.00
2023-04-29T16:27:45.835Z,6.30
2023-04-29T16:30:18.443Z,6.30
2023-04-29T16:32:52.172Z,6.47
2023-04-29T16:35:25.956Z,6.10
2023-04-29T16:38:00.016Z,6.40
2023-04-29T16:40:32.728Z,6.95
2023-04-29T16:43:05.091Z,6.50
2023-04-29T16:45:37.589Z,6.22
2023-04-29T16:48:10.214Z,6.20
2023-04-29T16:50:42.391Z,6.57
2023-04-29T16:53:14.797Z,6.53
2023-04-29T16:55:47.069Z,6.20
2023-04-29T16:58:20.452Z,6.40
2023-04-29T17:00:55.308Z,6.13
2023-04-29T17:03:28.104Z,6.90
2023-04-29T17:06:00.696Z,6.00
2023-04-29T17:08:33.843Z,5.78
2023-04-29T17:11:06.507Z,6.45
2023-04-29T17:13:39.542Z,6.50
2023-04-29T17:16:14.432Z,5.40
2023-04-29T17:18:47.779Z,6.65
2023-04-29T17:21:23.260Z,6.68
2023-04-29T17:23:59.090Z,6.20
2023-04-29T17:26:31.625Z,5.72
2023-04-29T17:29:04.722Z,6.60
2023-04-29T17:31:46.087Z,5.40
2023-04-29T17:34:29.060Z,6.00
2023-04-29T17:37:02.483Z,5.18
2023-04-29T17:39:36.044Z,5.10
2023-04-29T17:42:08.278Z,6.95
2023-04-29T17:44:40.632Z,7.25
2023-04-29T17:47:13.383Z,5.40
2023-04-29T17:49:47.478Z,5.25
2023-04-29T17:52:23.446Z,8.07
2023-04-29T17:54:55.864Z,5.57
2023-04-29T17:57:31.013Z,6.13
2023-04-29T18:00:04.849Z,5.63
2023-04-29T18:02:39.557Z,7.20
2023-04-29T18:05:12.098Z,7.22
2023-04-29T18:07:45.446Z,6.55
2023-04-29T18:10:17.857Z,6.82
2023-04-29T18:12:50.134Z,8.15
2023-04-29T18:15:23.205Z,6.50
2023-04-29T18:17:56.188Z,6.40
2023-04-29T18:20:29.463Z,7.18
2023-04-29T18:23:02.970Z,6.35
2023-04-29T18:25:39.553Z,10.23
2023-04-29T18:28:23.646Z,5.45
2023-04-29T18:30:57.773Z,6.57
2023-04-29T18:33:32.031Z,5.93
2023-04-29T18:36:05.110Z,6.35
2023-04-29T18:38:38.255Z,5.53
2023-04-29T18:41:12.291Z,6.75
2023-04-29T18:43:46.055Z,6.32
2023-04-29T18:46:18.911Z,6.03
2023-04-29T18:48:51.559Z,6.43
2023-04-29T18:51:24.404Z,6.00
2023-04-29T18:53:57.443Z,6.85
2023-04-29T18:56:30.171Z,6.85
2023-04-29T18:59:02.916Z,7.38
2023-04-29T19:01:35.728Z,6.90
2023-04-29T19:04:09.966Z,6.88
2023-04-29T19:06:43.335Z,5.90
2023-04-29T19:09:16.304Z,6.95
2023-04-29T19:11:48.984Z,6.57
2023-04-29T19:14:23.144Z,5.78
2023-04-29T19:16:56.333Z,5.47
2023-04-29T19:19:30.556Z,5.50
2023-04-29T19:22:05.642Z,5.20
2023-04-29T19:24:39.732Z,5.15
2023-04-29T19:27:14.457Z,7.53
2023-04-29T19:29:47.760Z,6.60
2023-04-29T19:32:20.511Z,5.55
2023-04-29T19:34:53.693Z,6.82
2023-04-29T19:37:26.855Z,7.00
2023-04-29T19:40:00.172Z,7.60
2023-04-29T19:42:33.590Z,7.00
2023-04-29T19:45:07.897Z,8.65
2023-04-29T19:47:41.680Z,6.22
2023-04-29T19:50:15.357Z,6.53
2023-04-29T19:52:48.079Z,5.47
2023-04-29T19:55:20.883Z,6.65
2023-04-29T19:57:53.848Z,7.90
2023-04-29T20:00:27.754Z,8.27
2023-04-29T20:03:01.464Z,8.65
2023-04-29T20:05:34.669Z,9.57
2023-04-29T20:08:07.491Z,10.75
2023-04-29T20:10:42.008Z,9.35
2023-04-29T20:13:15.863Z,9.60
2023-04-29T20:15:49.031Z,9.07
2023-04-29T20:18:22.675Z,7.97
2023-04-29T20:20:56.680Z,9.10
2023-04-29T20:23:29.568Z,8.98
2023-04-29T20:26:04.044Z,8.85
2023-04-29T20:28:36.904Z,10.20
2023-04-29T20:31:09.583Z,10.85
2023-04-29T20:33:42.151Z,8.20
2023-04-29T20:36:14.978Z,8.38
2023-04-29T20:38:49.541Z,8.23
2023-04-29T20:41:22.358Z,9.75
2023-04-29T20:43:58.749Z,8.30
2023-04-29T20:46:31.324Z,8.57
2023-04-29T20:49:05.457Z,8.60
2023-04-29T20:51:38.002Z,8.55
2023-04-29T20:54:10.869Z,9.10
2023-04-29T20:56:43.747Z,9.65
2023-04-29T20:59:16.904Z,9.63
2023-04-29T21:01:49.424Z,9.40
2023-04-29T21:04:23.583Z,9.45
2023-04-29T21:06:56.539Z,9.30
2023-04-29T21:09:29.335Z,9.40
2023-04-29T21:12:02.904Z,10.30
2023-04-29T21:14:38.985Z,10.32
2023-04-29T21:17:12.531Z,8.52
2023-04-29T21:19:45.477Z,9.43
2023-04-29T21:22:18.184Z,9.75
2023-04-29T21:24:50.699Z,8.85
2023-04-29T21:27:23.204Z,8.60
2023-04-29T21:29:55.858Z,8.20
2023-04-29T21:32:29.640Z,10.10
2023-04-29T21:35:05.256Z,8.70
2023-04-29T21:37:38.472Z,8.40
2023-04-29T21:40:12.220Z,8.55
2023-04-29T21:42:45.782Z,8.30
2023-04-29T21:45:18.463Z,8.10
2023-04-29T21:47:52.834Z,8.82
2023-04-29T21:50:28.017Z,9.23
2023-04-29T21:53:00.792Z,11.98
2023-04-29T21:55:33.516Z,10.55
2023-04-29T21:58:06.549Z,9.57
2023-04-29T22:00:41.397Z,8.52
2023-04-29T22:03:22.800Z,8.73
2023-04-29T22:05:56.019Z,8.02
2023-04-29T22:08:28.641Z,8.30
2023-04-29T22:11:01.207Z,9.15
2023-04-29T22:13:33.821Z,8.25
2023-04-29T22:16:06.747Z,8.40
2023-04-29T22:18:39.888Z,7.78
2023-04-29T22:21:12.197Z,7.72
2023-04-29T22:23:45.089Z,7.25
2023-04-29T22:26:18.648Z,7.95
2023-04-29T22:28:52.146Z,8.35
2023-04-29T22:31:24.812Z,7.25
2023-04-29T22:33:57.963Z,7.00
2023-04-29T22:36:31.662Z,6.85
2023-04-29T22:39:04.187Z,7.10
2023-04-29T22:41:37.154Z,7.18
2023-04-29T22:44:09.721Z,6.90
2023-04-29T22:46:42.340Z,6.78
2023-04-29T22:49:14.573Z,6.60
2023-04-29T22:51:46.950Z,6.55
2023-04-29T22:54:19.092Z,6.10
2023-04-29T22:56:51.407Z,6.30
2023-04-29T22:59:23.858Z,5.80
2023-04-29T23:01:56.256Z,6.13
2023-04-29T23:04:28.570Z,5.95
2023-04-29T23:07:01.744Z,6.47
2023-04-29T23:09:33.908Z,5.72
2023-04-29T23:12:06.264Z,6.53
2023-04-29T23:14:38.327Z,6.10
2023-04-29T23:17:11.138Z,5.53
2023-04-29T23:19:43.593Z,5.30
2023-04-29T23:22:17.057Z,5.45
2023-04-29T23:24:49.423Z,6.28
2023-04-29T23:27:21.886Z,6.38
2023-04-29T23:29:54.101Z,5.68
2023-04-29T23:32:26.408Z,5.63
2023-04-29T23:34:58.664Z,15.35
2023-04-29T23:37:30.986Z,5.68
2023-04-29T23:40:04.754Z,7.05
2023-04-29T23:42:37.564Z,6.30
2023-04-29T23:45:10.179Z,5.13
2023-04-29T23:47:42.579Z,5.65
2023-04-29T23:50:14.971Z,6.50
2023-04-29T23:52:47.185Z,5.05
2023-04-29T23:55:20.639Z,5.10
2023-04-29T23:57:52.655Z,5.35
